Time,TemperatureF,DewpointF,PressureIn,WindDirection,WindDirectionDegrees,WindSpeedMPH,WindSpeedGustMPH,Humidity,HourlyPrecipIn,Conditions,Clouds,dailyrainin,SoftwareType,DateUTC
2013-04-14 00:00:00,73.1,68.0,29.92,NNE,28,5.0,-999.0,83,-99.99,,,0.00,weatherlink.com 1.10,2013-04-14 04:00:00,
2013-04-14 00:15:00,73.2,68.0,29.92,NNE,28,5.0,-999.0,83,-99.99,,,0.00,weatherlink.com 1.10,2013-04-14 04:15:00,
2013-04-14 00:30:00,73.3,68.0,29.92,NE,47,12.0,-999.0,83,-99.99,,,0.00,weatherlink.com 1.10,2013-04-14 04:30:00,
2013-04-14 00:45:00,73.2,68.0,29.92,NE,48,6.0,-999.0,83,-99.99,,,0.00,weatherlink.com 1.10,2013-04-14 04:45:00,
2013-04-14 01:00:00,73.3,67.0,29.92,NE,41,7.0,-999.0,80,-99.99,,,0.00,weatherlink.com 1.10,2013-04-14 05:00:00,
2013-04-14 01:15:00,73.3,66.0,29.92,NE,37,7.0,-999.0,78,-99.99,,,0.00,weatherlink.com 1.10,2013-04-14 05:15:00,
2013-04-14 01:30:00,73.3,65.0,29.92,NE,44,5.0,-999.0,76,-99.99,,,0.00,weatherlink.com 1.10,2013-04-14 05:30:00,
2013-04-14 01:45:00,73.1,64.0,29.92,NE,48,4.0,-999.0,74,-99.99,,,0.00,weatherlink.com 1.10,2013-04-14 05:45:00,
2013-04-14 02:00:00,73.1,64.0,29.91,NE,48,5.0,-999.0,74,-99.99,,,0.00,weatherlink.com 1.10,2013-04-14 06:00:00,
2013-04-14 02:15:00,73.0,64.0,29.91,ENE,60,5.0,-999.0,74,-99.99,,,0.00,weatherlink.com 1.10,2013-04-14 06:15:00,
2013-04-14 02:30:00,73.1,66.0,29.91,ENE,73,7.0,-999.0,77,-99.99,,,0.00,weatherlink.com 1.10,2013-04-14 06:30:00,
2013-04-14 02:45:00,72.8,67.0,29.90,ENE,75,7.0,-999.0,82,-99.99,,,0.00,weatherlink.com 1.10,2013-04-14 06:45:00,
2013-04-14 03:00:00,72.7,68.0,29.89,ENE,78,8.0,-999.0,84,-99.99,,,0.00,weatherlink.com 1.10,2013-04-14 07:00:00,
2013-04-14 03:15:00,72.5,68.0,29.90,ENE,78,6.0,-999.0,85,-99.99,,,0.00,weatherlink.com 1.10,2013-04-14 07:15:00,
2013-04-14 03:30:00,72.5,69.0,29.89,East,79,9.0,-999.0,87,-99.99,,,0.00,weatherlink.com 1.10,2013-04-14 07:30:00,
2013-04-14 03:45:00,72.5,69.0,29.88,ENE,78,5.0,-999.0,87,-99.99,,,0.00,weatherlink.com 1.10,2013-04-14 07:45:00,
2013-04-14 04:00:00,72.4,69.0,29.87,ENE,75,6.0,-999.0,88,-99.99,,,0.00,weatherlink.com 1.10,2013-04-14 08:00:00,
2013-04-14 04:15:00,72.4,69.0,29.87,East,85,5.0,-999.0,89,-99.99,,,0.00,weatherlink.com 1.10,2013-04-14 08:15:00,
2013-04-14 04:30:00,72.5,69.0,29.87,East,92,4.0,-999.0,89,-99.99,,,0.00,weatherlink.com 1.10,2013-04-14 08:30:00,
2013-04-14 04:45:00,72.4,69.0,29.86,ESE,106,1.0,-999.0,89,-99.99,,,0.00,weatherlink.com 1.10,2013-04-14 08:45:00,
2013-04-14 05:00:00,72.2,69.0,29.86,East,91,7.0,-999.0,89,-99.99,,,0.00,weatherlink.com 1.10,2013-04-14 09:00:00,
2013-04-14 05:15:00,72.1,69.0,29.86,ESE,114,3.0,-999.0,89,-99.99,,,0.00,weatherlink.com 1.10,2013-04-14 09:15:00,
2013-04-14 05:30:00,72.1,69.0,29.86,East,96,2.0,-999.0,90,-99.99,,,0.00,weatherlink.com 1.10,2013-04-14 09:30:00,
2013-04-14 05:45:00,72.3,70.0,29.86,ESE,114,5.0,-999.0,91,-99.99,,,0.00,weatherlink.com 1.10,2013-04-14 09:45:00,
2013-04-14 06:00:00,72.4,69.0,29.86,ESE,113,4.0,-999.0,90,-99.99,,,0.00,weatherlink.com 1.10,2013-04-14 10:00:00,
2013-04-14 06:15:00,72.5,70.0,29.87,ESE,110,5.0,-999.0,91,-99.99,,,0.00,weatherlink.com 1.10,2013-04-14 10:15:00,
2013-04-14 06:30:00,72.5,70.0,29.87,South,173,0.0,-999.0,91,-99.99,,,0.00,weatherlink.com 1.10,2013-04-14 10:30:00,
2013-04-14 06:45:00,72.4,70.0,29.87,ESE,110,4.0,-999.0,92,-99.99,,,0.00,weatherlink.com 1.10,2013-04-14 10:45:00,
2013-04-14 07:00:00,72.3,70.0,29.86,East,99,3.0,-999.0,93,-99.99,,,0.00,weatherlink.com 1.10,2013-04-14 11:00:00,
2013-04-14 07:15:00,72.3,70.0,29.86,ESE,113,6.0,-999.0,93,-99.99,,,0.00,weatherlink.com 1.10,2013-04-14 11:15:00,
2013-04-14 07:30:00,72.3,70.0,29.87,ESE,109,6.0,-999.0,93,-99.99,,,0.00,weatherlink.com 1.10,2013-04-14 11:30:00,
2013-04-14 07:45:00,72.5,71.0,29.87,East,83,5.0,-999.0,94,-99.99,,,0.00,weatherlink.com 1.10,2013-04-14 11:45:00,
2013-04-14 08:00:00,72.6,71.0,29.87,East,95,4.0,-999.0,93,-99.99,,,0.00,weatherlink.com 1.10,2013-04-14 12:00:00,
2013-04-14 08:15:00,72.8,71.0,29.88,ESE,106,7.0,-999.0,94,-99.99,,,0.00,weatherlink.com 1.10,2013-04-14 12:15:00,
2013-04-14 08:30:00,73.3,71.0,29.88,ESE,121,4.0,-999.0,93,-99.99,,,0.00,weatherlink.com 1.10,2013-04-14 12:30:00,
2013-04-14 08:45:00,73.4,71.0,29.89,SE,146,1.0,-999.0,93,-99.99,,,0.00,weatherlink.com 1.10,2013-04-14 12:45:00,
2013-04-14 09:00:00,73.7,72.0,29.89,SSE,155,1.0,-999.0,93,-99.99,,,0.00,weatherlink.com 1.10,2013-04-14 13:00:00,
2013-04-14 09:15:00,74.6,72.0,29.90,SSE,163,2.0,-999.0,91,-99.99,,,0.00,weatherlink.com 1.10,2013-04-14 13:15:00,
2013-04-14 09:30:00,75.3,72.0,29.91,East,86,3.0,-999.0,89,-99.99,,,0.00,weatherlink.com 1.10,2013-04-14 13:30:00,
2013-04-14 09:45:00,75.7,72.0,29.91,East,94,2.0,-999.0,88,-99.99,,,0.00,weatherlink.com 1.10,2013-04-14 13:45:00,
2013-04-14 10:00:00,76.1,72.0,29.90,East,101,3.0,-999.0,87,-99.99,,,0.00,weatherlink.com 1.10,2013-04-14 14:00:00,
2013-04-14 10:15:00,76.8,72.0,29.91,ESE,114,2.0,-999.0,86,-99.99,,,0.00,weatherlink.com 1.10,2013-04-14 14:15:00,
2013-04-14 10:30:00,77.1,72.0,29.91,SSE,150,2.0,-999.0,85,-99.99,,,0.00,weatherlink.com 1.10,2013-04-14 14:30:00,
2013-04-14 10:45:00,77.6,73.0,29.90,SE,131,3.0,-999.0,84,-99.99,,,0.00,weatherlink.com 1.10,2013-04-14 14:45:00,
2013-04-14 11:00:00,77.9,72.0,29.91,SE,132,1.0,-999.0,83,-99.99,,,0.00,weatherlink.com 1.10,2013-04-14 15:00:00,
2013-04-14 11:15:00,78.2,73.0,29.91,SE,126,3.0,-999.0,83,-99.99,,,0.00,weatherlink.com 1.10,2013-04-14 15:15:00,
2013-04-14 11:30:00,78.4,73.0,29.91,South,172,4.0,-999.0,82,-99.99,,,0.00,weatherlink.com 1.10,2013-04-14 15:30:00,
2013-04-14 11:45:00,78.3,73.0,29.88,SSE,157,6.0,-999.0,83,-99.99,,,0.00,weatherlink.com 1.10,2013-04-14 15:45:00,
2013-04-14 12:00:00,78.4,73.0,29.89,SSE,152,6.0,-999.0,83,-99.99,,,0.00,weatherlink.com 1.10,2013-04-14 16:00:00,
2013-04-14 12:15:00,79.7,73.0,29.89,South,184,5.0,-999.0,80,-99.99,,,0.00,weatherlink.com 1.10,2013-04-14 16:15:00,
2013-04-14 12:30:00,78.9,73.0,29.89,WSW,251,2.0,-999.0,81,-99.99,,,0.00,weatherlink.com 1.10,2013-04-14 16:30:00,
2013-04-14 12:45:00,78.7,73.0,29.89,South,171,4.0,-999.0,83,-99.99,,,0.00,weatherlink.com 1.10,2013-04-14 16:45:00,
2013-04-14 13:00:00,78.4,73.0,29.88,SSE,153,6.0,-999.0,84,-99.99,,,0.00,weatherlink.com 1.10,2013-04-14 17:00:00,
2013-04-14 13:15:00,78.7,74.0,29.88,South,176,11.0,-999.0,84,-99.99,,,0.00,weatherlink.com 1.10,2013-04-14 17:15:00,
2013-04-14 13:30:00,78.7,74.0,29.87,SE,142,5.0,-999.0,85,-99.99,,,0.00,weatherlink.com 1.10,2013-04-14 17:30:00,
2013-04-14 13:45:00,79.0,74.0,29.87,South,188,7.0,-999.0,85,-99.99,,,0.00,weatherlink.com 1.10,2013-04-14 17:45:00,
2013-04-14 14:00:00,78.7,75.0,29.87,South,170,4.0,-999.0,87,-99.99,,,0.00,weatherlink.com 1.10,2013-04-14 18:00:00,
2013-04-14 14:15:00,78.5,75.0,29.86,SSE,150,10.0,-999.0,88,-99.99,,,0.00,weatherlink.com 1.10,2013-04-14 18:15:00,
2013-04-14 14:30:00,78.4,75.0,29.86,SSW,195,9.0,-999.0,89,-99.99,,,0.00,weatherlink.com 1.10,2013-04-14 18:30:00,
2013-04-14 14:45:00,78.7,75.0,29.85,SSE,161,9.0,-999.0,88,-99.99,,,0.00,weatherlink.com 1.10,2013-04-14 18:45:00,
2013-04-14 15:00:00,78.9,75.0,29.84,SSE,161,4.0,-999.0,87,-99.99,,,0.00,weatherlink.com 1.10,2013-04-14 19:00:00,
2013-04-14 15:15:00,78.4,75.0,29.83,SSE,165,10.0,-999.0,88,-99.99,,,0.00,weatherlink.com 1.10,2013-04-14 19:15:00,
2013-04-14 15:30:00,78.4,75.0,29.83,North,360,6.0,-999.0,89,-99.99,,,0.00,weatherlink.com 1.10,2013-04-14 19:30:00,
2013-04-14 15:45:00,78.6,75.0,29.83,SSE,160,11.0,-999.0,88,-99.99,,,0.00,weatherlink.com 1.10,2013-04-14 19:45:00,
2013-04-14 16:00:00,78.9,75.0,29.83,SSW,195,3.0,-999.0,88,-99.99,,,0.00,weatherlink.com 1.10,2013-04-14 20:00:00,
2013-04-14 16:15:00,78.7,75.0,29.82,SSE,165,5.0,-999.0,87,-99.99,,,0.00,weatherlink.com 1.10,2013-04-14 20:15:00,
2013-04-14 16:30:00,78.5,75.0,29.82,SSW,209,8.0,-999.0,88,-99.99,,,0.00,weatherlink.com 1.10,2013-04-14 20:30:00,
2013-04-14 16:45:00,78.7,75.0,29.83,South,189,4.0,-999.0,88,-99.99,,,0.00,weatherlink.com 1.10,2013-04-14 20:45:00,
2013-04-14 17:00:00,78.0,74.0,29.84,South,179,9.0,-999.0,88,-99.99,,,0.00,weatherlink.com 1.10,2013-04-14 21:00:00,
2013-04-14 17:15:00,77.5,74.0,29.84,South,183,3.0,-999.0,89,-99.99,,,0.00,weatherlink.com 1.10,2013-04-14 21:15:00,
2013-04-14 17:30:00,77.4,74.0,29.84,South,184,0.0,-999.0,90,-99.99,,,0.00,weatherlink.com 1.10,2013-04-14 21:30:00,
2013-04-14 17:45:00,77.6,74.0,29.84,South,190,1.0,-999.0,89,-99.99,,,0.00,weatherlink.com 1.10,2013-04-14 21:45:00,
2013-04-14 18:00:00,77.7,74.0,29.83,SW,214,1.0,-999.0,89,-99.99,,,0.00,weatherlink.com 1.10,2013-04-14 22:00:00,
2013-04-14 18:15:00,77.4,74.0,29.84,SW,221,3.0,-999.0,89,-99.99,,,0.00,weatherlink.com 1.10,2013-04-14 22:15:00,
2013-04-14 18:30:00,77.0,74.0,29.84,West,261,1.0,-999.0,90,-99.99,,,0.00,weatherlink.com 1.10,2013-04-14 22:30:00,
2013-04-14 19:00:00,76.2,74.0,29.85,South,187,2.0,-999.0,91,-99.99,,,0.00,weatherlink.com 1.10,2013-04-14 23:00:00,
2013-04-14 19:15:00,76.0,73.0,29.85,SSW,207,2.0,-999.0,91,-99.99,,,0.00,weatherlink.com 1.10,2013-04-14 23:15:00,
2013-04-14 19:30:00,75.7,73.0,29.86,SSW,207,0.0,-999.0,92,-99.99,,,0.00,weatherlink.com 1.10,2013-04-14 23:30:00,
2013-04-14 19:45:00,75.4,73.0,29.86,SSW,207,0.0,-999.0,92,-99.99,,,0.00,weatherlink.com 1.10,2013-04-14 23:45:00,
2013-04-14 20:00:00,75.2,73.0,29.86,SSW,207,0.0,-999.0,92,-99.99,,,0.00,weatherlink.com 1.10,2013-04-15 00:00:00,
2013-04-14 20:15:00,75.1,73.0,29.87,SSW,207,0.0,-999.0,93,-99.99,,,0.00,weatherlink.com 1.10,2013-04-15 00:15:00,
2013-04-14 20:30:00,75.1,73.0,29.88,WSW,257,0.0,-999.0,93,-99.99,,,0.00,weatherlink.com 1.10,2013-04-15 00:30:00,
2013-04-14 20:45:00,75.0,73.0,29.89,WSW,257,1.0,-999.0,93,-99.99,,,0.00,weatherlink.com 1.10,2013-04-15 00:45:00,
2013-04-14 21:00:00,72.2,67.0,29.93,NW,323,17.0,-999.0,83,-99.99,,,0.00,weatherlink.com 1.10,2013-04-15 01:00:00,
2013-04-14 21:15:00,70.8,65.0,29.95,NW,319,23.0,-999.0,81,-99.99,,,0.00,weatherlink.com 1.10,2013-04-15 01:15:00,
2013-04-14 21:30:00,70.0,65.0,29.96,NNW,344,15.0,-999.0,83,-99.99,,,0.00,weatherlink.com 1.10,2013-04-15 01:30:00,
2013-04-14 21:45:00,69.3,64.0,29.96,NNW,332,15.0,-999.0,84,-99.99,,,0.00,weatherlink.com 1.10,2013-04-15 01:45:00,
2013-04-14 22:00:00,69.5,64.0,29.95,NNW,337,7.0,-999.0,83,-99.99,,,0.00,weatherlink.com 1.10,2013-04-15 02:00:00,
2013-04-14 22:15:00,69.9,64.0,29.96,NW,314,15.0,-999.0,82,-99.99,,,0.00,weatherlink.com 1.10,2013-04-15 02:15:00,
2013-04-14 22:30:00,70.1,64.0,29.96,NNW,344,10.0,-999.0,81,-99.99,,,0.00,weatherlink.com 1.10,2013-04-15 02:30:00,
2013-04-14 22:45:00,70.5,64.0,29.96,North,360,9.0,-999.0,80,-99.99,,,0.00,weatherlink.com 1.10,2013-04-15 02:45:00,
2013-04-14 23:00:00,71.2,64.0,29.95,NNW,348,12.0,-999.0,77,-99.99,,,0.00,weatherlink.com 1.10,2013-04-15 03:00:00,
2013-04-14 23:15:00,71.8,64.0,29.95,North,360,13.0,-999.0,75,-99.99,,,0.00,weatherlink.com 1.10,2013-04-15 03:15:00,
2013-04-14 23:30:00,72.2,63.0,29.95,North,351,11.0,-999.0,73,-99.99,,,0.00,weatherlink.com 1.10,2013-04-15 03:30:00,
2013-04-14 23:45:00,72.1,64.0,29.94,North,350,10.0,-999.0,75,-99.99,,,0.00,weatherlink.com 1.10,2013-04-15 03:45:00,